Pagrindinis puslapis
METAR-TAF:

METAR-TAF

Oro uostai :

Tateyama, Japonija

platuma: 34-59N, ilguma: 139-50E, Aukštis: 3 m

Dabartinis oras

Ataskaita buvo paskelbta 7 valandos ir 46 minutes, ne 03:22 UTC
Vėjas 6 kt iš Šiaurės/Šiaurės Rytų
Temperatūra 5°C
Drėgmė 93%
Slėgis 1025 hPa
Matomumas 10 km arba daugiau
Mažai debesys ne aukštis 500 ft
Išsisklaidę debesys ne aukštis 800 ft
Su prošvaistėmis ne aukštis 1500 ft
lietus

METAR: RJTE 260322Z 02006KT 9999 -RA FEW005 SCT008 BKN015 05/04 Q1025 RMK 2ST005 4ST008 7SC015 A3027

Laikas: 20:08 (11:08 UTC)


TAF: trūkstamas

Orai ataskaitas ir orų prognozės (METAR, TAF).

turimą stotys yra geltonos ir raudonos taškus žemėlapyje.

Perkelti pele per norėdami pamatyti stoties vardą.

Tada spustelėkite, norėdami matyti oro stebėjimo ir prognozės.

Norėdami pakeisti žemėlapį: spustelėkite ant žalios mygtukų su juodo kryžiaus žemyn,; žalią mygtuką su brūkšneliu, jei norite nutolinti; arba žalių rodyklių gretimoms žemėlapius.


METAR-TAF: